Terminal Aerodrome Forecast
Issued by NWS

Home | Current Version | Previous Version | Graphics & Text | Print | Product List | Glossary On
Versions: 1 2 3 4 5 6 7 8 9 10 11 12 13 14 15 16 17 18
920
FTUS43 KGRB 050826 AAA
TAFATW
TAF AMD
KATW 050826Z 0508/0606 23005KT P6SM SCT025 BKN050
      TEMPO 0508/0512 -SHSN BKN025
     FM051200 28005KT P6SM SCT025 BKN035
     FM051400 31007KT P6SM SCT035
     FM052100 24005KT P6SM BKN070=

USA.gov is the U.S. government's official web portal to all federal, state and local government web resources and services.